Faribault, Minnesota
Current Conditions -  °F | °C
As of 10:14 PM on Monday 22 Dec 2014 (Local Time) from KFBL Reporting Station
Drizzle Drizzle  
Wind Chill: 29°   Ceiling: 800
Heat Index: 36°   Visibility: 5mi
Dew Point: 34°   Wind: 8mph
Humidity: 93%   Direction: 60°ENE
Pressure: 29.58"   Gusts: NA
Location:  44.29°N, 93.27°W
Report Text: KFBL 230414Z AUTO 06007KT 5SM -DZ OVC008 02/01 A2958 RMK AO2
Loading
Personal Weather Stations






























Interactive Weather Map New forecast layout! Learn more

10-Day Weather Forecast

Advertisements
Track Severe Weather on mobile